Time;durP1;ratioP1;P1;durP2;ratioP2;P2;SDS_P1;SDS_P2;PMS_P1;PMS_P2;Temp;Humidity;BMP_temperature;BMP_pressure;BME280_temperature;BME280_humidity;BME280_pressure;Samples;Min_cycle;Max_cycle;Signal;HPM_P1;HPM_P2
2022/03/04 00:00:40;;;;;;;;;56.75;44.25;;;;;12.83;61.64;101170.28;5030385;28;47666;-79
2022/03/04 00:03:05;;;;;;;;;56.00;43.75;;;;;12.80;61.65;101175.88;5036964;28;45352;-77
2022/03/04 00:05:31;;;;;;;;;52.00;41.00;;;;;12.86;61.90;101194.00;5036684;28;45356;-79
2022/03/04 00:07:56;;;;;;;;;55.00;44.00;;;;;12.81;62.24;101198.91;5037093;28;45552;-78
2022/03/04 00:10:22;;;;;;;;;55.75;45.25;;;;;12.73;62.22;101180.13;5036892;28;47364;-78
2022/03/04 00:12:50;;;;;;;;;56.00;45.00;;;;;12.95;62.23;101208.25;5040409;28;45872;-77
2022/03/04 00:15:15;;;;;;;;;55.50;44.75;;;;;13.00;62.06;101209.50;5038722;28;45479;-75
2022/03/04 00:17:41;;;;;;;;;60.50;46.25;;;;;13.01;61.78;101205.88;5029436;28;45377;-78
2022/03/04 00:20:08;;;;;;;;;52.25;43.00;;;;;13.00;61.65;101204.16;5021781;28;47069;-75
2022/03/04 00:22:33;;;;;;;;;55.75;45.50;;;;;12.82;61.85;101167.75;5032612;28;45421;-77
2022/03/04 00:24:59;;;;;;;;;53.00;45.00;;;;;13.00;61.95;101208.66;5026362;28;45345;-76
2022/03/04 00:27:24;;;;;;;;;55.00;44.50;;;;;12.69;61.27;101157.41;5045742;28;45301;-78
2022/03/04 00:29:49;;;;;;;;;52.25;42.50;;;;;12.88;61.64;101209.84;5019162;28;47900;-78
2022/03/04 00:32:15;;;;;;;;;57.25;44.75;;;;;12.66;62.50;101192.41;5021837;28;45476;-76
2022/03/04 00:34:42;;;;;;;;;57.25;45.00;;;;;12.69;62.39;101197.44;5036760;28;45551;-78
2022/03/04 00:37:08;;;;;;;;;53.75;43.25;;;;;12.70;62.22;101191.09;5024492;28;45577;-77
2022/03/04 00:39:33;;;;;;;;;53.25;42.00;;;;;12.80;62.08;101213.22;5022177;28;45940;-79
2022/03/04 00:41:58;;;;;;;;;58.00;45.25;;;;;12.76;63.04;101207.34;5033195;28;45470;-77
2022/03/04 00:44:24;;;;;;;;;57.75;45.75;;;;;12.64;63.04;101183.69;5036467;28;45478;-78
2022/03/04 00:46:49;;;;;;;;;56.50;44.50;;;;;12.64;63.27;101197.03;5044283;28;45233;-77
2022/03/04 00:49:15;;;;;;;;;62.25;49.50;;;;;12.59;63.53;101200.13;5039681;28;46474;-77
2022/03/04 00:51:40;;;;;;;;;65.25;51.50;;;;;12.56;64.21;101204.91;5021289;28;45784;-76
2022/03/04 00:54:06;;;;;;;;;57.50;47.00;;;;;12.45;63.93;101180.13;5019664;28;45312;-76
2022/03/04 00:56:31;;;;;;;;;68.00;52.75;;;;;12.46;64.10;101197.78;5042039;28;45530;-78
2022/03/04 00:58:57;;;;;;;;;67.25;51.75;;;;;12.43;64.37;101200.75;5025834;28;48279;-77
2022/03/04 01:01:22;;;;;;;;;62.50;48.75;;;;;12.29;64.41;101177.22;5033217;28;45434;-77
2022/03/04 01:03:47;;;;;;;;;65.50;51.75;;;;;11.91;64.58;101124.00;5038439;28;45461;-77
2022/03/04 01:06:13;;;;;;;;;68.50;54.00;;;;;12.21;64.67;101165.56;5018599;28;45389;-78
2022/03/04 01:08:38;;;;;;;;;69.25;52.25;;;;;12.30;64.52;101180.72;5042495;28;46642;-77
2022/03/04 01:11:04;;;;;;;;;67.00;52.75;;;;;12.32;64.40;101182.25;5037813;28;45553;-75
2022/03/04 01:13:30;;;;;;;;;67.00;53.25;;;;;12.44;64.49;101202.44;5037842;28;45345;-77
2022/03/04 01:15:56;;;;;;;;;74.25;64.00;;;;;12.08;64.08;101144.56;5030744;28;45312;-79
2022/03/04 01:18:21;;;;;;;;;78.50;67.50;;;;;12.35;64.15;101187.28;5032190;28;47693;-76
2022/03/04 01:20:47;;;;;;;;;73.75;61.25;;;;;12.30;63.84;101178.88;5035344;28;45531;-77
2022/03/04 01:23:12;;;;;;;;;72.25;59.50;;;;;12.23;64.04;101166.28;5026364;28;45518;-77
2022/03/04 01:25:38;;;;;;;;;74.75;62.50;;;;;12.21;64.23;101166.41;5025857;28;45229;-77
2022/03/04 01:28:03;;;;;;;;;75.25;64.25;;;;;12.45;64.15;101197.94;5029281;28;48332;-76
2022/03/04 01:30:29;;;;;;;;;78.00;69.50;;;;;12.44;64.06;101212.25;5025257;28;45307;-77
2022/03/04 01:32:54;;;;;;;;;79.50;73.00;;;;;11.99;64.40;101134.75;5033064;28;45298;-76
2022/03/04 01:35:20;;;;;;;;;67.25;49.25;;;;;12.33;64.60;101199.94;5021541;28;45618;-77
2022/03/04 01:37:45;;;;;;;;;78.75;71.00;;;;;12.42;64.63;101206.25;5021828;28;48376;-76
2022/03/04 01:40:11;;;;;;;;;76.25;67.25;;;;;12.45;64.50;101204.13;5017332;28;45365;-77
2022/03/04 01:42:38;;;;;;;;;74.25;60.75;;;;;12.42;64.95;101199.06;5026012;28;45535;-77
2022/03/04 01:45:06;;;;;;;;;74.00;62.75;;;;;12.45;64.25;101209.44;5045237;28;45580;-76
2022/03/04 01:47:32;;;;;;;;;73.00;61.25;;;;;12.44;64.91;101194.44;5018709;28;46297;-75
2022/03/04 01:49:58;;;;;;;;;73.75;59.75;;;;;12.46;64.42;101192.47;5031937;28;45317;-76
2022/03/04 01:52:23;;;;;;;;;73.50;61.50;;;;;12.59;64.25;101208.13;5018353;28;45465;-76
2022/03/04 01:54:49;;;;;;;;;70.25;56.00;;;;;12.57;64.05;101190.59;5040327;28;45535;-75
2022/03/04 01:57:14;;;;;;;;;71.00;60.00;;;;;12.48;63.73;101166.47;5026720;28;46371;-76
2022/03/04 01:59:40;;;;;;;;;74.00;66.25;;;;;12.61;64.07;101182.13;5033877;28;45281;-75
2022/03/04 02:02:06;;;;;;;;;74.25;64.75;;;;;12.59;63.66;101172.59;5018814;28;45249;-75
2022/03/04 02:04:31;;;;;;;;;73.75;60.50;;;;;12.68;63.61;101187.75;5023180;28;45565;-77
2022/03/04 02:06:57;;;;;;;;;72.75;63.75;;;;;12.67;63.95;101183.41;5034701;28;46408;-76
2022/03/04 02:09:22;;;;;;;;;74.00;58.25;;;;;12.47;63.73;101148.81;5025502;28;45941;-76
2022/03/04 02:11:48;;;;;;;;;68.50;52.75;;;;;12.57;63.90;101164.75;5034026;28;45408;-77
2022/03/04 02:14:15;;;;;;;;;80.50;67.00;;;;;12.50;63.55;101158.34;5021110;28;45605;-77
2022/03/04 02:16:44;;;;;;;;;73.50;62.75;;;;;12.35;64.12;101133.13;5024396;28;46209;-77
2022/03/04 02:19:09;;;;;;;;;76.00;64.75;;;;;12.43;63.68;101155.44;5034887;28;45581;-76
2022/03/04 02:21:35;;;;;;;;;74.75;65.25;;;;;12.48;64.25;101161.16;5033784;28;45317;-76
2022/03/04 02:24:01;;;;;;;;;79.25;67.50;;;;;12.44;63.77;101165.09;5023718;28;45502;-76
2022/03/04 02:26:27;;;;;;;;;75.00;65.50;;;;;12.34;63.73;101148.28;5018425;28;45530;-76
2022/03/04 02:28:52;;;;;;;;;73.25;62.25;;;;;12.24;63.60;101131.50;5017140;28;46081;-76
2022/03/04 02:31:19;;;;;;;;;75.00;61.50;;;;;12.39;63.83;101161.16;5033451;28;46440;-78
2022/03/04 02:33:46;;;;;;;;;76.75;66.25;;;;;12.35;64.10;101149.97;5027966;28;45502;-77
2022/03/04 02:36:12;;;;;;;;;71.75;60.25;;;;;11.41;64.37;101002.53;5036834;28;48020;-77
2022/03/04 02:38:38;;;;;;;;;75.75;62.00;;;;;12.23;64.18;101129.81;5022226;28;45990;-78
2022/03/04 02:41:04;;;;;;;;;75.75;65.50;;;;;12.28;64.26;101140.03;5019708;28;45478;-77
2022/03/04 02:43:30;;;;;;;;;69.00;55.75;;;;;12.28;64.41;101143.53;5026765;28;45493;-76
2022/03/04 02:45:55;;;;;;;;;75.00;65.00;;;;;11.96;64.26;101095.09;5024929;28;45462;-76
2022/03/04 02:48:21;;;;;;;;;73.25;61.25;;;;;11.96;64.41;101103.91;5033277;28;45261;-77
2022/03/04 02:50:46;;;;;;;;;74.50;61.75;;;;;12.28;64.43;101159.53;5016127;28;45547;-77
2022/03/04 02:53:11;;;;;;;;;75.50;62.50;;;;;12.22;64.14;101138.81;5033510;28;45506;-76
2022/03/04 02:55:37;;;;;;;;;67.25;54.75;;;;;12.43;64.52;101167.91;5020116;28;45501;-76
2022/03/04 02:58:03;;;;;;;;;74.00;58.75;;;;;12.34;64.62;101158.94;5027838;28;45475;-77
2022/03/04 03:00:28;;;;;;;;;71.25;58.25;;;;;12.37;64.24;101152.47;5052247;28;45554;-76
2022/03/04 03:02:53;;;;;;;;;70.50;55.75;;;;;11.94;64.52;101076.59;5030177;28;45480;-76
2022/03/04 03:05:20;;;;;;;;;69.00;54.75;;;;;12.44;64.10;101153.59;5019063;28;48819;-78
2022/03/04 03:07:45;;;;;;;;;66.50;53.25;;;;;12.29;64.23;101129.22;5023329;28;45560;-77
2022/03/04 03:10:11;;;;;;;;;62.50;48.50;;;;;12.42;63.78;101156.41;5017595;28;45514;-75
2022/03/04 03:12:39;;;;;;;;;59.00;48.00;;;;;12.49;64.06;101162.84;5024608;28;45587;-78
2022/03/04 03:15:05;;;;;;;;;53.50;43.25;;;;;12.62;63.88;101183.00;5019648;28;48210;-77
2022/03/04 03:17:30;;;;;;;;;58.00;46.50;;;;;12.55;63.25;101160.56;5019318;28;45302;-78
2022/03/04 03:19:56;;;;;;;;;53.25;43.50;;;;;12.48;63.31;101139.81;5022509;28;45528;-77
2022/03/04 03:22:21;;;;;;;;;50.25;41.25;;;;;12.53;62.77;101146.53;5016349;28;45487;-77
2022/03/04 03:24:47;;;;;;;;;50.50;41.25;;;;;12.75;62.54;101173.66;5021228;28;47237;-76
2022/03/04 03:27:12;;;;;;;;;50.50;41.00;;;;;12.26;62.72;101088.69;5034179;28;45474;-77
2022/03/04 03:29:38;;;;;;;;;49.75;40.00;;;;;12.71;62.62;101166.09;5027491;28;45568;-76
2022/03/04 03:32:04;;;;;;;;;53.25;42.75;;;;;12.63;62.51;101158.84;5016933;28;45262;-77
2022/03/04 03:34:29;;;;;;;;;50.25;41.75;;;;;12.72;62.58;101173.13;5023629;28;48151;-76
2022/03/04 03:36:55;;;;;;;;;51.50;42.00;;;;;12.69;62.48;101176.09;5017539;28;45491;-76
2022/03/04 03:39:20;;;;;;;;;49.25;41.00;;;;;12.67;62.52;101165.56;5025168;28;45454;-76
2022/03/04 03:41:46;;;;;;;;;50.50;40.75;;;;;12.37;61.75;101102.66;5022670;28;45514;-76
2022/03/04 03:44:11;;;;;;;;;53.00;44.00;;;;;12.81;61.81;101182.91;5019301;28;47892;-76
2022/03/04 03:46:37;;;;;;;;;55.00;43.00;;;;;12.64;61.75;101152.53;5039876;28;45475;-78
2022/03/04 03:49:02;;;;;;;;;50.00;40.50;;;;;12.62;62.00;101167.84;5017333;28;45510;-78
2022/03/04 03:51:27;;;;;;;;;50.50;40.50;;;;;12.25;62.33;101109.19;5017820;28;45446;-75
2022/03/04 03:53:53;;;;;;;;;51.00;41.00;;;;;12.68;61.92;101177.91;5024960;28;48284;-76
2022/03/04 03:56:18;;;;;;;;;50.00;40.50;;;;;12.73;61.42;101188.13;5041694;28;45355;-76
2022/03/04 03:58:44;;;;;;;;;51.00;41.25;;;;;12.83;61.72;101186.28;5027831;28;46023;-75
2022/03/04 04:01:09;;;;;;;;;51.25;40.25;;;;;12.75;61.59;101173.66;5026981;28;45606;-77
2022/03/04 04:03:35;;;;;;;;;38.50;33.25;;;;;12.88;61.21;101192.00;5031081;28;47549;-75
2022/03/04 04:06:01;;;;;;;;;50.25;40.75;;;;;12.88;61.55;101193.84;5015463;28;46285;-77
2022/03/04 04:08:27;;;;;;;;;50.25;41.00;;;;;12.74;61.47;101185.31;5028223;28;45482;-75
2022/03/04 04:10:52;;;;;;;;;48.75;40.75;;;;;12.86;61.32;101202.00;5018970;28;45514;-78
2022/03/04 04:13:17;;;;;;;;;50.25;41.00;;;;;12.76;61.37;101179.84;5016127;28;47816;-77
2022/03/04 04:15:43;;;;;;;;;54.25;43.50;;;;;12.88;61.26;101204.50;5018572;28;45400;-74
2022/03/04 04:18:08;;;;;;;;;54.50;43.00;;;;;12.65;61.44;101166.72;5038573;28;45523;-77
2022/03/04 04:20:35;;;;;;;;;50.50;41.75;;;;;12.70;61.47;101173.28;5021917;28;45462;-76
2022/03/04 04:23:00;;;;;;;;;52.50;43.50;;;;;12.77;61.37;101177.03;5024191;28;46336;-76
2022/03/04 04:25:26;;;;;;;;;59.25;46.00;;;;;12.76;61.20;101190.50;5014759;28;45494;-77
2022/03/04 04:27:51;;;;;;;;;52.00;43.25;;;;;12.77;61.43;101186.84;5034082;28;45377;-75
2022/03/04 04:30:17;;;;;;;;;51.25;42.50;;;;;12.80;61.31;101183.88;5031818;28;45253;-76
2022/03/04 04:32:42;;;;;;;;;52.75;42.50;;;;;12.80;61.09;101194.56;5017796;28;46681;-77
2022/03/04 04:35:08;;;;;;;;;53.75;43.75;;;;;12.65;61.81;101198.72;5016876;28;45321;-75
2022/03/04 04:37:33;;;;;;;;;52.50;42.25;;;;;12.58;61.61;101187.78;5016575;28;45498;-76
2022/03/04 04:39:59;;;;;;;;;53.75;40.25;;;;;12.66;61.91;101195.91;5024289;28;45244;-76
2022/03/04 04:42:24;;;;;;;;;50.50;40.75;;;;;12.60;61.56;101185.78;5035266;28;47613;-79
2022/03/04 04:44:50;;;;;;;;;53.50;44.00;;;;;12.56;61.47;101194.25;5034420;28;45330;-76
2022/03/04 04:47:16;;;;;;;;;52.75;42.00;;;;;12.44;62.30;101198.94;5016799;28;45190;-77
2022/03/04 04:49:41;;;;;;;;;52.75;41.00;;;;;12.44;62.91;101214.94;5031904;28;45486;-77
2022/03/04 04:52:07;;;;;;;;;55.50;44.75;;;;;12.40;62.56;101210.84;5025870;28;45801;-76
2022/03/04 04:54:34;;;;;;;;;53.50;44.25;;;;;12.26;63.65;101219.31;5027326;28;46084;-76
2022/03/04 04:57:00;;;;;;;;;55.75;45.00;;;;;12.25;63.56;101218.47;5018544;28;45494;-76
2022/03/04 04:59:25;;;;;;;;;55.75;46.75;;;;;12.14;64.03;101202.63;5017355;28;45494;-77
2022/03/04 05:01:50;;;;;;;;;58.00;47.00;;;;;12.15;64.27;101212.31;5017150;28;45674;-77
2022/03/04 05:04:16;;;;;;;;;59.25;47.00;;;;;11.95;64.72;101205.31;5038596;28;45593;-76
2022/03/04 05:06:41;;;;;;;;;63.50;50.75;;;;;11.80;65.28;101219.06;5022174;28;45545;-77
2022/03/04 05:09:07;;;;;;;;;56.50;46.00;;;;;11.75;65.72;101215.09;5023797;28;45701;-77
2022/03/04 05:11:33;;;;;;;;;60.00;48.75;;;;;11.80;65.42;101219.06;5015701;28;46921;-77
2022/03/04 05:13:58;;;;;;;;;58.50;47.50;;;;;11.86;65.53;101223.84;5033524;28;45678;-77
2022/03/04 05:16:24;;;;;;;;;58.75;45.25;;;;;11.63;65.28;101185.13;5029795;28;45509;-76
2022/03/04 05:18:49;;;;;;;;;57.50;46.75;;;;;11.86;64.98;101220.34;5029414;28;45402;-77
2022/03/04 05:21:15;;;;;;;;;60.00;49.00;;;;;11.62;65.21;101183.44;5023747;28;45430;-76
2022/03/04 05:26:24;;;;;;;;;61.25;49.75;;;;;11.79;65.10;101196.06;5019120;28;45526;-78
2022/03/04 05:28:50;;;;;;;;;63.75;50.50;;;;;11.87;65.34;101216.69;5029328;28;45654;-77
2022/03/04 05:31:16;;;;;;;;;65.50;50.75;;;;;11.77;65.58;101199.81;5040253;28;48082;-76
2022/03/04 05:33:41;;;;;;;;;65.00;50.00;;;;;11.83;65.41;101212.63;5017839;28;46144;-76
2022/03/04 05:36:06;;;;;;;;;65.00;52.25;;;;;12.10;65.01;101236.72;5034751;28;45483;-77
2022/03/04 05:38:32;;;;;;;;;57.00;46.50;;;;;12.05;64.92;101222.16;5019079;28;45612;-77
2022/03/04 05:40:58;;;;;;;;;68.75;53.50;;;;;11.75;65.34;101180.47;5039499;28;48446;-76
2022/03/04 05:43:23;;;;;;;;;64.50;50.00;;;;;11.96;65.08;101225.66;5028988;28;45453;-77
2022/03/04 05:45:49;;;;;;;;;66.00;51.50;;;;;12.01;65.37;101234.91;5019846;28;45482;-76
2022/03/04 05:48:15;;;;;;;;;64.25;49.75;;;;;11.86;65.58;101218.53;5019590;28;45457;-77
2022/03/04 05:50:43;;;;;;;;;60.00;47.75;;;;;11.48;64.96;101159.88;5026713;28;47597;-78
2022/03/04 05:53:09;;;;;;;;;63.75;49.25;;;;;11.97;65.31;101228.16;5029122;28;46020;-76
2022/03/04 05:55:35;;;;;;;;;63.00;47.75;;;;;11.82;65.53;101210.97;5034101;28;45402;-78
2022/03/04 05:58:00;;;;;;;;;65.25;50.50;;;;;12.04;65.27;101236.47;5017839;28;46099;-80
2022/03/04 06:00:27;;;;;;;;;63.50;49.25;;;;;12.03;65.16;101240.94;5030266;28;45512;-77
2022/03/04 06:02:52;;;;;;;;;65.25;51.25;;;;;11.94;64.97;101222.28;5019417;28;45399;-77
2022/03/04 06:05:18;;;;;;;;;61.50;49.50;;;;;12.17;64.86;101242.31;5017522;28;45338;-77
2022/03/04 06:07:43;;;;;;;;;60.00;48.25;;;;;12.21;64.74;101233.06;5027095;28;45542;-77
2022/03/04 06:10:09;;;;;;;;;60.25;48.75;;;;;12.15;64.07;101206.97;5031354;28;47509;-75
2022/03/04 06:12:34;;;;;;;;;65.00;50.50;;;;;12.37;64.29;101245.81;5032994;28;45441;-77
2022/03/04 06:15:00;;;;;;;;;57.25;46.25;;;;;12.38;64.21;101251.00;5025320;28;45874;-77
2022/03/04 06:17:25;;;;;;;;;53.25;41.75;;;;;12.28;64.03;101234.19;5028270;28;45396;-79
2022/03/04 06:19:50;;;;;;;;;59.00;48.00;;;;;12.35;63.93;101256.63;5039530;28;48020;-76
2022/03/04 06:22:18;;;;;;;;;57.75;45.50;;;;;12.26;63.48;101245.97;5029692;28;46156;-77
2022/03/04 06:24:44;;;;;;;;;59.50;47.00;;;;;12.39;63.97;101263.34;5034245;28;45230;-76
2022/03/04 06:27:09;;;;;;;;;57.50;47.25;;;;;12.28;64.04;101254.66;5018181;28;45353;-77
2022/03/04 06:29:34;;;;;;;;;61.25;48.25;;;;;12.16;64.00;101241.47;5017512;28;47704;-78
2022/03/04 06:32:00;;;;;;;;;58.25;47.00;;;;;12.43;63.95;101280.75;5042087;28;46022;-78
2022/03/04 06:34:25;;;;;;;;;61.75;48.00;;;;;12.20;63.33;101223.38;5025346;28;45167;-77
2022/03/04 06:36:51;;;;;;;;;59.50;47.25;;;;;12.55;63.18;101272.56;5033556;28;45415;-78
2022/03/04 06:39:16;;;;;;;;;57.25;47.25;;;;;12.38;63.42;101240.31;5016573;28;48942;-79
2022/03/04 06:41:42;;;;;;;;;59.00;46.75;;;;;12.62;62.86;101269.22;5040690;28;46209;-78
2022/03/04 06:44:07;;;;;;;;;68.50;53.00;;;;;12.53;63.10;101261.22;5027801;28;46909;-77
2022/03/04 06:46:33;;;;;;;;;61.50;50.00;;;;;12.52;63.52;101276.38;5033063;28;45435;-78
2022/03/04 06:48:58;;;;;;;;;61.25;49.00;;;;;12.38;63.44;101271.47;5016646;28;48729;-77
2022/03/04 06:51:23;;;;;;;;;62.50;49.25;;;;;12.45;63.62;101283.28;5047127;28;45512;-76
2022/03/04 06:53:49;;;;;;;;;67.75;52.50;;;;;12.44;63.77;101282.44;5026314;28;45391;-76
2022/03/04 06:56:18;;;;;;;;;65.50;51.00;;;;;12.38;63.18;101288.31;5027951;28;45574;-78
2022/03/04 06:58:44;;;;;;;;;65.25;51.50;;;;;12.51;63.17;101304.03;5017909;28;47450;-77
2022/03/04 07:01:12;;;;;;;;;61.75;48.75;;;;;12.59;63.00;101300.63;5017297;28;46296;-77
2022/03/04 07:03:38;;;;;;;;;64.00;49.75;;;;;12.66;63.32;101301.78;5036490;28;45407;-77
2022/03/04 07:06:03;;;;;;;;;59.00;46.25;;;;;12.25;62.84;101228.31;5023710;28;45422;-78
2022/03/04 07:08:30;;;;;;;;;59.00;47.00;;;;;12.69;62.10;101306.81;5032170;28;48393;-78
2022/03/04 07:10:56;;;;;;;;;56.50;46.25;;;;;12.73;61.85;101309.03;5033223;28;46023;-80
2022/03/04 07:13:22;;;;;;;;;60.00;47.75;;;;;12.53;61.34;101275.38;5030414;28;45588;-78
2022/03/04 07:15:48;;;;;;;;;57.75;46.75;;;;;12.63;61.07;101286.06;5024873;28;45529;-77
2022/03/04 07:18:13;;;;;;;;;53.25;43.75;;;;;12.64;61.45;101277.06;5023196;28;47012;-77
2022/03/04 07:20:40;;;;;;;;;57.25;46.25;;;;;12.65;60.99;101300.09;5019958;28;45320;-78
2022/03/04 07:23:06;;;;;;;;;58.00;45.00;;;;;12.75;61.30;101315.06;5036143;28;45269;-77
2022/03/04 07:25:32;;;;;;;;;53.25;42.00;;;;;12.74;60.54;101325.88;5022906;28;45570;-75
2022/03/04 07:27:58;;;;;;;;;61.75;48.75;;;;;11.92;61.00;101197.59;5025248;28;48579;-77
2022/03/04 07:30:26;;;;;;;;;55.50;45.50;;;;;11.93;61.38;101207.28;5031098;28;45533;-77
2022/03/04 07:32:51;;;;;;;;;60.50;46.50;;;;;12.65;61.14;101324.09;5021776;28;45555;-78
2022/03/04 07:35:17;;;;;;;;;60.00;45.75;;;;;12.49;61.46;101296.19;5040226;28;45603;-76
2022/03/04 07:37:43;;;;;;;;;57.25;44.00;;;;;12.67;61.28;101320.28;5017137;28;45975;-78
2022/03/04 07:40:11;;;;;;;;;65.00;49.50;;;;;11.94;61.38;101211.63;5021327;28;45239;-77
2022/03/04 07:42:37;;;;;;;;;64.00;49.25;;;;;12.36;61.26;101284.97;5024618;28;45490;-78
2022/03/04 07:45:03;;;;;;;;;58.75;48.75;;;;;12.09;61.17;101251.03;5040390;28;45714;-77
2022/03/04 07:47:29;;;;;;;;;60.25;46.25;;;;;12.54;61.39;101314.41;5023780;28;48279;-73
2022/03/04 07:50:04;;;;;;;;;57.00;46.00;;;;;12.41;60.92;101303.19;5026856;28;45487;-80
2022/03/04 07:52:32;;;;;;;;;60.25;48.00;;;;;12.38;60.80;101301.66;5027380;28;45506;-77
2022/03/04 07:55:00;;;;;;;;;58.50;47.50;;;;;12.60;61.19;101334.31;5024185;28;45414;-77
2022/03/04 07:57:25;;;;;;;;;58.25;46.25;;;;;12.40;60.88;101302.34;5025595;28;45523;-78
2022/03/04 08:00:04;;;;;;;;;62.50;49.25;;;;;12.25;60.82;101270.97;5026180;28;45526;-78
2022/03/04 08:02:37;;;;;;;;;59.25;47.00;;;;;12.53;60.12;101322.56;5022982;28;45451;-78
2022/03/04 08:05:09;;;;;;;;;51.00;43.00;;;;;12.54;60.67;101324.25;5031958;28;45521;-79
2022/03/04 08:07:36;;;;;;;;;62.75;49.25;;;;;12.04;60.68;101241.78;5027116;28;47769;-80
2022/03/04 08:10:04;;;;;;;;;57.75;47.00;;;;;12.49;60.43;101312.19;5028504;28;45487;-78
2022/03/04 08:12:30;;;;;;;;;58.50;47.50;;;;;12.78;60.37;101345.94;5028538;28;45616;-76
2022/03/04 08:14:55;;;;;;;;;61.50;49.00;;;;;12.73;59.70;101334.88;5025084;28;45541;-77
2022/03/04 08:17:20;;;;;;;;;57.00;45.50;;;;;12.79;60.10;101348.47;5024947;28;46987;-77
2022/03/04 08:19:49;;;;;;;;;57.50;47.00;;;;;12.71;60.26;101336.84;5032136;28;45649;-77
2022/03/04 08:22:22;;;;;;;;;56.75;45.00;;;;;12.86;59.71;101361.25;5028954;28;45570;-75
2022/03/04 08:24:48;;;;;;;;;61.50;48.25;;;;;12.95;59.59;101361.22;5022062;28;45508;-75
2022/03/04 08:27:13;;;;;;;;;58.50;47.75;;;;;12.83;58.84;101333.03;5029428;28;46346;-74
2022/03/04 08:29:39;;;;;;;;;63.25;50.25;;;;;12.87;59.16;101342.44;5017945;28;45734;-73
2022/03/04 08:32:04;;;;;;;;;63.50;50.50;;;;;13.01;59.14;101370.47;5024641;28;45272;-73
2022/03/04 08:34:30;;;;;;;;;64.25;48.50;;;;;12.86;59.16;101329.25;5020774;28;45396;-75
2022/03/04 08:36:55;;;;;;;;;65.25;52.50;;;;;12.58;59.12;101277.63;5031830;28;47507;-77
2022/03/04 08:39:20;;;;;;;;;66.50;52.00;;;;;12.69;58.85;101296.13;5024994;28;45406;-74
2022/03/04 08:41:46;;;;;;;;;59.00;48.25;;;;;13.20;58.93;101374.94;5035172;28;45371;-75
2022/03/04 08:44:14;;;;;;;;;67.25;52.25;;;;;13.13;58.96;101347.13;5031517;28;45403;-75
2022/03/04 08:46:39;;;;;;;;;62.00;50.50;;;;;13.10;58.62;101340.25;5019757;28;48029;-77
2022/03/04 08:49:05;;;;;;;;;57.50;46.75;;;;;13.28;58.56;101370.59;5036370;28;45355;-75
2022/03/04 08:51:30;;;;;;;;;62.25;49.75;;;;;13.33;58.73;101375.47;5022253;28;45589;-77
2022/03/04 08:53:56;;;;;;;;;58.00;47.00;;;;;13.36;58.22;101367.16;5028545;28;45316;-76
2022/03/04 08:56:22;;;;;;;;;66.75;51.75;;;;;13.50;58.02;101374.72;5036750;28;47428;-74
2022/03/04 08:58:49;;;;;;;;;62.75;50.50;;;;;13.46;58.04;101370.66;5028255;28;45510;-76
2022/03/04 09:01:15;;;;;;;;;63.75;51.50;;;;;13.49;57.74;101367.69;5027953;28;45453;-77
2022/03/04 09:03:41;;;;;;;;;62.25;51.00;;;;;13.54;57.47;101365.41;5033056;28;45504;-76
2022/03/04 09:06:06;;;;;;;;;60.75;48.50;;;;;13.57;57.33;101359.75;5023173;28;46136;-77
2022/03/04 09:08:32;;;;;;;;;65.00;51.50;;;;;13.53;57.27;101345.03;5024454;28;45277;-76
2022/03/04 09:10:57;;;;;;;;;62.50;51.00;;;;;13.83;56.87;101380.47;5030343;28;45644;-76
2022/03/04 09:13:23;;;;;;;;;57.75;47.00;;;;;13.84;56.88;101379.47;5032134;28;45679;-76
2022/03/04 09:15:49;;;;;;;;;65.00;50.25;;;;;13.86;56.82;101377.47;5029170;28;48215;-77
2022/03/04 09:18:15;;;;;;;;;64.75;48.75;;;;;13.90;56.59;101378.84;5029709;28;45387;-76
2022/03/04 09:20:40;;;;;;;;;65.25;51.25;;;;;13.76;56.17;101339.28;5031477;28;45425;-77
2022/03/04 09:23:06;;;;;;;;;64.25;50.25;;;;;13.77;56.16;101336.44;5029155;28;45592;-78
2022/03/04 09:25:57;;;;;;;;;65.25;51.75;;;;;12.86;56.33;101185.97;5028349;28;45454;-77
2022/03/04 09:28:23;;;;;;;;;73.25;58.00;;;;;14.13;55.78;101390.81;5026288;28;45518;-78
2022/03/04 09:30:49;;;;;;;;;72.75;57.50;;;;;14.08;55.87;101387.75;5031427;28;45485;-80
2022/03/04 09:33:17;;;;;;;;;69.25;52.75;;;;;13.67;55.98;101317.81;5036934;28;45614;-79
2022/03/04 09:35:46;;;;;;;;;66.25;53.25;;;;;13.96;56.07;101368.41;5032290;28;47184;-80
2022/03/04 09:38:14;;;;;;;;;68.75;54.75;;;;;14.11;56.04;101391.94;5029908;28;45369;-78
2022/03/04 09:40:49;;;;;;;;;68.00;56.00;;;;;13.91;56.35;101348.47;5027063;28;45405;-79
2022/03/04 09:43:18;;;;;;;;;66.00;52.75;;;;;13.70;56.43;101341.56;5033788;28;45368;-79
2022/03/04 09:45:49;;;;;;;;;66.25;53.25;;;;;13.76;56.39;101353.47;5023646;28;48352;-79
2022/03/04 09:48:15;;;;;;;;;66.50;52.50;;;;;13.96;56.51;101368.41;5044924;28;46797;-78
2022/03/04 09:50:43;;;;;;;;;69.75;51.75;;;;;13.72;56.43;101343.25;5030682;28;45442;-77
2022/03/04 09:53:11;;;;;;;;;67.00;52.25;;;;;13.86;56.26;101366.78;5031575;28;45353;-76
2022/03/04 09:55:40;;;;;;;;;65.25;52.25;;;;;13.88;56.71;101372.81;5035079;28;48245;-77
2022/03/04 09:58:14;;;;;;;;;72.50;58.75;;;;;13.75;56.43;101358.97;5036710;28;45513;-80
2022/03/04 10:00:42;;;;;;;;;66.00;53.75;;;;;14.10;56.76;101391.13;5034243;28;45535;-78
2022/03/04 10:03:29;;;;;;;;;72.25;57.75;;;;;14.25;56.03;101381.59;5036744;28;45415;-74
2022/03/04 10:05:59;;;;;;;;;73.50;58.25;;;;;14.28;55.76;101372.41;5029842;28;46273;-77
2022/03/04 10:08:25;;;;;;;;;67.50;54.75;;;;;14.25;55.82;101375.41;5028928;28;45551;-74
2022/03/04 10:10:58;;;;;;;;;71.50;56.25;;;;;14.26;55.63;101374.41;5028930;28;45356;-74
2022/03/04 10:13:45;;;;;;;;;70.75;53.00;;;;;14.40;55.66;101391.72;5027188;28;45285;-74
2022/03/04 10:16:23;;;;;;;;;69.75;55.25;;;;;14.38;55.83;101358.94;5031827;28;46095;-71
2022/03/04 10:19:14;;;;;;;;;72.00;55.00;;;;;14.58;55.32;101385.41;5033033;28;45533;-74
2022/03/04 10:21:56;;;;;;;;;67.75;51.75;;;;;14.63;55.59;101384.13;5026281;28;45598;-76
2022/03/04 10:24:36;;;;;;;;;73.50;58.00;;;;;14.69;55.16;101386.19;5018403;28;45579;-73
2022/03/04 10:27:03;;;;;;;;;76.25;60.00;;;;;14.78;55.25;101380.72;5024376;28;48174;-74
2022/03/04 10:29:31;;;;;;;;;76.25;60.00;;;;;14.83;54.62;101381.13;5024979;28;45796;-72
2022/03/04 10:32:06;;;;;;;;;71.00;56.25;;;;;14.93;54.72;101382.84;5025932;28;45476;-76
2022/03/04 10:34:56;;;;;;;;;75.00;56.25;;;;;15.00;54.55;101389.22;5025612;28;45361;-75
2022/03/04 10:37:51;;;;;;;;;76.75;57.75;;;;;15.06;54.09;101388.63;5027298;28;45708;-74
2022/03/04 10:40:19;;;;;;;;;72.75;58.00;;;;;14.88;53.72;101354.69;5016363;28;45446;-73
2022/03/04 10:42:54;;;;;;;;;74.00;57.75;;;;;15.15;54.03;101387.66;5024584;28;45437;-73
2022/03/04 10:45:27;;;;;;;;;69.50;56.00;;;;;15.18;54.04;101390.03;5033088;28;45589;-74
2022/03/04 10:47:58;;;;;;;;;72.75;58.25;;;;;15.15;53.92;101382.31;5016940;28;46724;-74
2022/03/04 10:50:40;;;;;;;;;71.50;55.25;;;;;15.25;53.75;101393.78;5032981;28;45573;-72
2022/03/04 10:53:17;;;;;;;;;76.75;59.25;;;;;14.58;53.84;101286.41;5017743;28;45336;-74
2022/03/04 10:55:52;;;;;;;;;72.25;57.75;;;;;13.69;53.50;101117.25;5017745;28;45629;-76
2022/03/04 10:58:22;;;;;;;;;69.25;56.00;;;;;15.38;52.81;101399.50;5022032;28;47555;-75
2022/03/04 11:00:50;;;;;;;;;70.75;57.00;;;;;14.97;52.94;101317.25;5034713;28;45560;-70
2022/03/04 11:03:20;;;;;;;;;75.50;59.50;;;;;15.41;53.06;101375.06;5022451;28;45588;-73
2022/03/04 11:05:47;;;;;;;;;76.25;59.00;;;;;15.40;52.84;101381.44;5026866;28;45477;-75
2022/03/04 11:08:13;;;;;;;;;71.50;56.50;;;;;15.39;53.29;101386.97;5021424;28;45489;-76
2022/03/04 11:10:39;;;;;;;;;75.00;58.00;;;;;15.43;53.02;101389.19;5017406;28;45444;-73